Krotz Springs, LA

3:04 PM CDT on July 30, 2014 (GMT -0500)
Abbeville (KIYA) Elev 13 ft | 29.98 °N, 92.08 °W | Change Station

Current weather conditions updated 29 minutes ago

Clear
Clear
87 °F
Feels Like 90 °F
N
5
Wind Variable Wind from WNW

Today is forecast to be nearly the same temperature as yesterday.

Today
High -- | Low -- °F
--% Chance of Precip.
Yesterday
High -- | Low -- °F
Precip. -- in
6:23 AM 8:02 PM
Waxing Crescent, 13% visible
Pressure 30.03 in
Visibility 10.0 miles
Clouds Clear
Heat Index 90 °F
Dew Point 67 °F
Humidity 51%
Rainfall 0.00 in
Snow Depth Not available.
UV 13 out of 12
Pollen 3.20 out of 12
Air Quality Not available.
Flu Activity Not available.
METAR KIYA 301935Z AUTO 29004KT 10SM CLR 31/20 A3003 RMK AO2 T03060195

More Conditions Fewer Conditions

Pressure 30.03 in
Visibility 10.0 miles
Clouds Clear
Heat Index 90 °F
Dew Point 67 °F
Humidity 51%
Rainfall 0.00 in
Snow Depth Not available.
UV 13 out of 12
Pollen 3.20 out of 12
Air Quality Not available.
Flu Activity Not available.
METAR KIYA 301935Z AUTO 29004KT 10SM CLR 31/20 A3003 RMK AO2 T03060195

More Conditions Fewer Conditions

10-Day Weather Forecast

Almanac

Astronomy

Jul. 30, 2014 Rise Set
Actual Time 6:23 AM CDT 8:02 PM CDT
Civil Twilight 5:57 AM CDT 8:28 PM CDT
Nautical Twilight 5:26 AM CDT 9:00 PM CDT
Astronomical Twilight 4:52 AM CDT 9:33 PM CDT
Moon 9:37 AM CDT 10:05 PM CDT
Length of Visible Light 14h 31m
Length of Day
13h 38m
Tomorrow will be 1m 21s shorter.
Waxing Crescent, 13% of the Moon is Illuminated
Today
Waxing Crescent
Aug 3
First Quarter
Aug 10
Full
Aug 17
Last Quarter
Aug 25
New

Today's Extremes

State Highs State Lows

Community

WunderPhotos

Upload Photos

1,739,170 photos uploaded!

WunderBlogs® & News

Nearby

Snow Depth

Station Depth Elevation
No new snow has been reported.

Earthquake Activity

City Distance Mag. Time & Date
No recent earthquake activity has been reported nearby.
Minimum magnitude displayed is 2.5.

Coastal Water Temperatures

Place Temperature
No Stations Reporting

Nearby Weather Stations

Station Location Temp. Heat Index Dew Point Humidity Wind Precip. Elev Updated Type
Opelousas, Opelousas, LA 86.3 °F 87 °F 64 °F 47% NNW  at  4.0 mph 0.00 in / hr 27 ft 3:04 PM CDT Rapid Fire
Gulino Street, Opelousas, LA 86.7 °F 89 °F 66 °F 51% WNW  at  1.5 mph 0.00 in / hr 89 ft 3:03 PM CDT Normal
Opelousas, LA 89.2 °F 91 °F 64 °F 44% NNW  at  3.0 mph 0.00 in / hr 52 ft 3:00 PM CDT Normal
MesoWest ROSA , Rosa, LA 86 °F 83 °F - - North  at  - 0.00 in / hr 44 ft 12:40 PM CDT MADIS
Erwinville, Erwinville, LA 86.5 °F 89 °F 66 °F 51% NNW  at  2.0 mph 0.00 in / hr 30 ft 3:04 PM CDT Rapid Fire
Magnollia Farm, Carencro, LA 93.0 °F 140 °F - 93% North  at  0.0 mph 0.00 in / hr 43 ft 3:00 PM CDT Normal
Alma Plantation, Lakeland, LA 83.5 °F 83 °F 57 °F 41% NNW  at  13.0 mph 0.00 in / hr 35 ft 3:00 PM CDT Normal

Show More Stations Show Fewer Stations